WetterOnline ( https://www.wetteronline.ch )

Wetter aktuell Freudenstadt (in 700m)

Aktuelles Wetter: Freudenstadt (801m)

6-stündlich | Neueste Meldungen
Ortszeit Temperatur Wetter
Do, 25.04. 2:00 6.6° C bewölkt
Mi, 24.04. 20:00 7.0° C wolkig
Mi, 24.04. 14:00 19.3° C leicht bewölkt
Mi, 24.04. 8:00 13.0° C wolkig
Mi, 24.04. 2:00 13.1° C wolkenlos
Di, 23.04. 20:00 16.3° C wolkig
Di, 23.04. 14:00 18.4° C bewölkt
Di, 23.04. 8:00 9.0° C wolkig
Ortszeit Temperatur Wetter
Do, 25.04. 7:30 6.3° C wolkenlos
Do, 25.04. 7:20 6.3° C wolkenlos
Do, 25.04. 7:10 5.6° C wolkenlos
Do, 25.04. 7:00 3.6° C leicht bewölkt
Do, 25.04. 6:50 3.6° C leicht bewölkt
Do, 25.04. 6:40 3.7° C leicht bewölkt
Do, 25.04. 6:30 5.4° C bewölkt
Do, 25.04. 6:00 4.7° C leicht bewölkt
Do, 25.04. 5:30 4.9° C wolkenlos
Do, 25.04. 5:00 5.5° C leicht bewölkt
Do, 25.04. 4:30 6.3° C wolkig
Ortszeit Relative Feuchte Sichtweite
Do, 25.04. 2:00 68% 70 km
Mi, 24.04. 20:00 71% 70 km
Mi, 24.04. 14:00 42% 45 km
Mi, 24.04. 8:00 62% 30 km
Mi, 24.04. 2:00 52% 70 km
Di, 23.04. 20:00 52% 40 km
Di, 23.04. 14:00 42% 40 km
Di, 23.04. 8:00 65% 55 km
Ortszeit Relative Feuchte Sichtweite
Do, 25.04. 7:30 74% 70 km
Do, 25.04. 7:20 74% -
Do, 25.04. 7:10 76% -
Do, 25.04. 7:00 85% 70 km
Do, 25.04. 6:50 85% -
Do, 25.04. 6:40 87% -
Do, 25.04. 6:30 76% 70 km
Do, 25.04. 6:00 80% 70 km
Do, 25.04. 5:30 79% 70 km
Do, 25.04. 5:00 76% 70 km
Do, 25.04. 4:30 73% 70 km
Ortszeit Niederschlagsmenge Niederschlagsart
Do, 25.04. 2:00 0.4 l/m2 in 6 Std. Regen
Mi, 24.04. 20:00 0.1 l/m2 in 12 Std. Regen
Mi, 24.04. 14:00 0.0 l/m2 in 6 Std. -
Mi, 24.04. 8:00 0.0 l/m2 in 12 Std. -
Mi, 24.04. 2:00 0.0 l/m2 in 6 Std. -
Di, 23.04. 20:00 0.0 l/m2 in 12 Std. -
Di, 23.04. 14:00 0.0 l/m2 in 6 Std. -
Di, 23.04. 8:00 0.0 l/m2 in 12 Std. -
Ortszeit Niederschlagsmenge Niederschlagsart
Do, 25.04. 7:30 0.0 l/m2 in 1 Std. -
Do, 25.04. 7:20 keine Meldung -
Do, 25.04. 7:10 keine Meldung -
Do, 25.04. 7:00 0.0 l/m2 in 1 Std. -
Do, 25.04. 6:50 keine Meldung -
Do, 25.04. 6:40 keine Meldung -
Do, 25.04. 6:30 0.0 l/m2 in 1 Std. -
Do, 25.04. 6:00 0.0 l/m2 in 1 Std. -
Do, 25.04. 5:30 0.0 l/m2 in 1 Std. -
Do, 25.04. 5:00 0.0 l/m2 in 1 Std. -
Do, 25.04. 4:30 0.0 l/m2 in 1 Std. -
Ortszeit Stärke Spitze Richtung
km/h Bft. km/h Grad Sektor
Do, 25.04. 2:00 13 3 89 180° S
Mi, 24.04. 20:00 50 7 90 270° W
Mi, 24.04. 14:00 15 3 30 110° O
Mi, 24.04. 8:00 19 3 26 280° W
Mi, 24.04. 2:00 13 3 19 190° S
Di, 23.04. 20:00 7 2 25 60° NO
Di, 23.04. 14:00 7 2 22 100° O
Di, 23.04. 8:00 7 2 25 120° SO
Ortszeit Stärke Spitze Richtung
km/h Bft. km/h Grad Sektor
Do, 25.04. 7:30 7 2 11 100° O
Do, 25.04. 7:20 7 2 - 100° O
Do, 25.04. 7:10 6 1 - 100° O
Do, 25.04. 7:00 7 2 18 330° NW
Do, 25.04. 6:50 7 2 - 330° NW
Do, 25.04. 6:40 2 1 - 280° W
Do, 25.04. 6:30 13 3 19 140° SO
Do, 25.04. 6:00 13 3 22 150° SO
Do, 25.04. 5:30 18 3 22 130° SO
Do, 25.04. 5:00 14 3 25 170° S
Do, 25.04. 4:30 17 3 24 180° S
Ortszeit Untergrenze Bedeckung Gattung
total tief tief mittel hoch
Do, 25.04. 2:00 5700 m 7/8 6/8 - - -
Mi, 24.04. 20:00 660 m 8/8 1/8 - - -
Mi, 24.04. 14:00 7500 m 8/8 0/8 - - -
Mi, 24.04. 8:00 3600 m 8/8 8/8 - - -
Mi, 24.04. 2:00 - 0/8 0/8 - - -
Di, 23.04. 20:00 1800 m 8/8 2/8 - - -
Di, 23.04. 14:00 2700 m 8/8 5/8 - - -
Di, 23.04. 8:00 7800 m 8/8 0/8 - - -
Ortszeit Bedeckungsgrad in Achtel und Wolkenuntergrenze
Do, 25.04. 7:30 keine Wolken
Do, 25.04. 7:20 keine Wolken
Do, 25.04. 7:10 keine Wolken
Do, 25.04. 7:00 2(3000m)
Do, 25.04. 6:50 2(3000m)
Do, 25.04. 6:40 4(3000m)
Do, 25.04. 6:30 7(3000m)
Do, 25.04. 6:00 2(2700m)
Do, 25.04. 5:30 keine Wolken
Do, 25.04. 5:00 6(7200m)
Do, 25.04. 4:30 4(5100m) 6(7500m)
Ortszeit Stationsdruck (hPa) Tendenz (hPa in 3 Std.)
Do, 25.04. 2:00 917 + 0,3
Mi, 24.04. 20:00 916 + 5,7
Mi, 24.04. 14:00 912 - 1,0
Mi, 24.04. 8:00 911 + 1,5
Mi, 24.04. 2:00 909 + 0,4
Di, 23.04. 20:00 908 + 0,4
Di, 23.04. 14:00 908 + 0,5
Di, 23.04. 8:00 908 - 0,8
Ortszeit Stationsdruck (hPa) Tendenz (hPa in 3 Std.)
Do, 25.04. 7:30 917 - 0,3
Do, 25.04. 7:20 917 keine Meldung
Do, 25.04. 7:10 918 keine Meldung
Do, 25.04. 7:00 918 + 0,5
Do, 25.04. 6:50 918 keine Meldung
Do, 25.04. 6:40 918 keine Meldung
Do, 25.04. 6:30 918 + 0,3
Do, 25.04. 6:00 918 + 0,4
Do, 25.04. 5:30 917 0,0
Do, 25.04. 5:00 918 + 0,9
Do, 25.04. 4:30 918 + 0,7
Ortszeit Schneehöhe (cm)
Do, 25.04. 2:00 0
Mi, 24.04. 20:00 0
Mi, 24.04. 14:00 0
Mi, 24.04. 8:00 0
Mi, 24.04. 2:00 0
Di, 23.04. 20:00 0
Di, 23.04. 14:00 0
Di, 23.04. 8:00 0
Ortszeit Schneehöhe (cm)
Do, 25.04. 7:30 0
Do, 25.04. 7:20 0
Do, 25.04. 7:10 0
Do, 25.04. 7:00 0
Do, 25.04. 6:50 0
Do, 25.04. 6:40 0
Do, 25.04. 6:30 0
Do, 25.04. 6:00 0
Do, 25.04. 5:30 0
Do, 25.04. 5:00 0
Do, 25.04. 4:30 0
Link zu dieser Seite / Seite empfehlen

Das Wetter in ...